Date,TemperatureHighF,TemperatureAvgF,TemperatureLowF,DewpointHighF,DewpointAvgF,DewpointLowF,HumidityHigh,HumidityAvg,HumidityLow,PressureMaxIn,PressureMinIn,WindSpeedMaxMPH,WindSpeedAvgMPH,GustSpeedMaxMPH,PrecipitationSumIn
2013-7-1,84,70,54,61,57,54,100,67,37,29.93,29.86,14,3,0,0.00
2013-7-2,88,70,57,64,60,57,100,75,37,29.88,29.78,7,1,0,0.00
2013-7-3,88,72,55,66,61,55,100,72,37,29.80,29.64,10,1,0,0.00
2013-7-4,86,74,61,64,62,59,93,68,42,29.65,29.53,20,6,0,0.00
2013-7-5,88,78,70,70,65,61,83,66,48,29.57,29.51,18,7,0,0.00
2013-7-6,90,77,72,72,68,64,83,74,55,29.54,29.49,15,5,0,0.00
2013-7-7,91,78,66,75,70,66,100,79,55,29.67,29.54,13,2,0,0.00
2013-7-8,91,76,64,75,69,-100,100,84,49,29.71,29.61,8,0,0,0.00
2013-7-9,86,77,64,75,71,64,100,82,58,29.72,29.56,20,6,0,0.00
2013-7-10,82,70,61,70,60,-100,100,74,42,29.85,29.72,12,4,0,0.00
2013-7-11,82,69,61,64,62,59,100,80,54,29.82,29.72,17,4,0,0.00
2013-7-12,90,84,77,73,72,66,78,66,58,29.93,29.85,22,12,0,0.00
2013-7-13,88,79,72,75,72,66,100,80,66,30.01,29.92,13,5,0,0.00
2013-7-14,75,70,63,73,69,63,100,96,88,30.19,30.00,12,4,0,0.00
2013-7-15,86,75,63,73,68,63,100,80,51,30.24,30.15,13,3,0,0.00
2013-7-16,88,78,68,73,69,66,100,77,48,30.26,30.18,16,5,0,0.00
2013-7-17,91,79,68,72,71,68,100,76,52,30.30,30.16,14,4,0,0.00
2013-7-18,91,81,72,73,72,70,100,75,52,30.16,29.86,21,8,0,0.00
2013-7-19,84,78,68,72,67,63,100,71,51,29.99,29.86,20,6,0,0.00
2013-7-20,82,68,61,72,64,-100,100,90,61,30.06,29.91,12,2,0,0.00
2013-7-21,88,76,66,72,69,66,100,79,48,29.96,29.80,8,2,0,0.00
2013-7-22,88,75,64,73,68,63,100,81,51,29.95,29.75,20,6,0,0.00
2013-7-23,75,66,59,63,61,59,100,85,64,30.07,29.93,15,4,0,0.00
2013-7-24,82,70,55,66,61,54,100,77,51,30.12,30.02,8,1,0,0.00
2013-7-25,84,72,61,75,67,61,100,84,62,30.05,29.95,10,2,0,0.00
2013-7-26,72,64,55,66,57,52,100,79,52,30.17,30.02,22,9,0,0.00
2013-7-27,70,58,46,54,50,45,100,76,49,30.17,30.05,17,6,0,0.00
2013-7-28,73,61,45,55,51,45,100,74,49,30.10,30.05,14,2,0,0.00
2013-7-29,73,61,52,63,56,50,100,86,56,30.10,30.06,13,3,0,0.00
2013-7-30,77,68,63,68,64,63,100,89,69,30.12,30.07,12,3,0,0.00
2013-7-31,82,68,57,66,62,57,100,82,50,30.18,30.08,12,2,0,0.00